sensor_id;sensor_type;location;lat;lon;timestamp;temperature;humidity
69901;DHT22;57183;50.930;5.406;2023-09-07T00:00:14;17.80;99.90
69901;DHT22;57183;50.930;5.406;2023-09-07T00:02:40;17.80;99.90
69901;DHT22;57183;50.930;5.406;2023-09-07T00:05:06;17.80;99.90
69901;DHT22;57183;50.930;5.406;2023-09-07T00:07:33;17.70;99.90
69901;DHT22;57183;50.930;5.406;2023-09-07T00:09:59;17.60;99.90
69901;DHT22;57183;50.930;5.406;2023-09-07T00:12:25;17.60;99.90
69901;DHT22;57183;50.930;5.406;2023-09-07T00:14:53;17.60;99.90
69901;DHT22;57183;50.930;5.406;2023-09-07T00:17:20;17.60;99.90
69901;DHT22;57183;50.930;5.406;2023-09-07T00:19:45;17.50;99.90
69901;DHT22;57183;50.930;5.406;2023-09-07T00:22:14;17.50;99.90
69901;DHT22;57183;50.930;5.406;2023-09-07T00:24:40;17.50;99.90
69901;DHT22;57183;50.930;5.406;2023-09-07T00:27:05;17.40;99.90
69901;DHT22;57183;50.930;5.406;2023-09-07T00:29:36;17.40;99.90
69901;DHT22;57183;50.930;5.406;2023-09-07T00:32:01;17.40;99.90
69901;DHT22;57183;50.930;5.406;2023-09-07T00:34:27;17.30;99.90
69901;DHT22;57183;50.930;5.406;2023-09-07T00:36:53;17.30;99.90
69901;DHT22;57183;50.930;5.406;2023-09-07T00:39:18;17.20;99.90
69901;DHT22;57183;50.930;5.406;2023-09-07T00:41:44;17.20;99.90
69901;DHT22;57183;50.930;5.406;2023-09-07T00:44:10;17.20;99.90
69901;DHT22;57183;50.930;5.406;2023-09-07T00:46:35;17.10;99.90
69901;DHT22;57183;50.930;5.406;2023-09-07T00:49:02;16.90;99.90
69901;DHT22;57183;50.930;5.406;2023-09-07T00:51:30;16.90;99.90
69901;DHT22;57183;50.930;5.406;2023-09-07T00:53:56;16.90;99.90
69901;DHT22;57183;50.930;5.406;2023-09-07T00:56:22;16.90;99.90
69901;DHT22;57183;50.930;5.406;2023-09-07T00:58:48;16.90;99.90
69901;DHT22;57183;50.930;5.406;2023-09-07T01:01:14;17.00;99.90
69901;DHT22;57183;50.930;5.406;2023-09-07T01:03:40;17.00;99.90
69901;DHT22;57183;50.930;5.406;2023-09-07T01:06:39;16.90;99.90
69901;DHT22;57183;50.930;5.406;2023-09-07T01:09:19;16.90;99.90
69901;DHT22;57183;50.930;5.406;2023-09-07T01:11:44;16.90;99.90
69901;DHT22;57183;50.930;5.406;2023-09-07T01:14:10;17.20;99.90
69901;DHT22;57183;50.930;5.406;2023-09-07T01:16:36;17.20;99.90
69901;DHT22;57183;50.930;5.406;2023-09-07T01:19:06;17.10;99.90
69901;DHT22;57183;50.930;5.406;2023-09-07T01:21:35;17.10;99.90
69901;DHT22;57183;50.930;5.406;2023-09-07T01:24:02;16.90;99.90
69901;DHT22;57183;50.930;5.406;2023-09-07T01:26:30;16.70;99.90
69901;DHT22;57183;50.930;5.406;2023-09-07T01:28:55;16.70;99.90
69901;DHT22;57183;50.930;5.406;2023-09-07T01:31:21;16.70;99.90
69901;DHT22;57183;50.930;5.406;2023-09-07T01:33:47;16.70;99.90
69901;DHT22;57183;50.930;5.406;2023-09-07T01:36:13;16.70;99.90
69901;DHT22;57183;50.930;5.406;2023-09-07T01:38:38;16.60;99.90
69901;DHT22;57183;50.930;5.406;2023-09-07T01:41:04;16.60;99.90
69901;DHT22;57183;50.930;5.406;2023-09-07T01:43:29;16.50;99.90
69901;DHT22;57183;50.930;5.406;2023-09-07T01:45:55;16.50;99.90
69901;DHT22;57183;50.930;5.406;2023-09-07T01:48:21;16.50;99.90
69901;DHT22;57183;50.930;5.406;2023-09-07T01:50:46;16.50;99.90
69901;DHT22;57183;50.930;5.406;2023-09-07T01:53:12;16.50;99.90
69901;DHT22;57183;50.930;5.406;2023-09-07T01:55:38;16.50;99.90
69901;DHT22;57183;50.930;5.406;2023-09-07T01:58:03;16.30;99.90
69901;DHT22;57183;50.930;5.406;2023-09-07T02:00:29;16.30;99.90
69901;DHT22;57183;50.930;5.406;2023-09-07T02:02:55;16.20;99.90
69901;DHT22;57183;50.930;5.406;2023-09-07T02:05:20;16.20;99.90
69901;DHT22;57183;50.930;5.406;2023-09-07T02:07:47;16.20;99.90
69901;DHT22;57183;50.930;5.406;2023-09-07T02:10:15;16.20;99.90
69901;DHT22;57183;50.930;5.406;2023-09-07T02:12:41;16.20;99.90
69901;DHT22;57183;50.930;5.406;2023-09-07T02:15:07;16.20;99.90
69901;DHT22;57183;50.930;5.406;2023-09-07T02:22:43;16.20;99.90
69901;DHT22;57183;50.930;5.406;2023-09-07T02:25:09;16.00;99.90
69901;DHT22;57183;50.930;5.406;2023-09-07T02:30:13;16.00;99.90
69901;DHT22;57183;50.930;5.406;2023-09-07T02:35:06;15.80;99.90
69901;DHT22;57183;50.930;5.406;2023-09-07T02:45:18;15.70;99.90
69901;DHT22;57183;50.930;5.406;2023-09-07T02:47:44;15.70;99.90
69901;DHT22;57183;50.930;5.406;2023-09-07T02:50:20;15.70;99.90
69901;DHT22;57183;50.930;5.406;2023-09-07T03:00:25;15.60;99.90
69901;DHT22;57183;50.930;5.406;2023-09-07T03:22:12;15.60;99.90
69901;DHT22;57183;50.930;5.406;2023-09-07T03:27:13;15.30;99.90
69901;DHT22;57183;50.930;5.406;2023-09-07T03:34:49;15.20;99.90
69901;DHT22;57183;50.930;5.406;2023-09-07T03:39:51;15.30;99.90
69901;DHT22;57183;50.930;5.406;2023-09-07T03:49:58;15.10;99.90
69901;DHT22;57183;50.930;5.406;2023-09-07T03:55:07;15.10;99.90
69901;DHT22;57183;50.930;5.406;2023-09-07T04:02:38;15.00;99.90
69901;DHT22;57183;50.930;5.406;2023-09-07T04:05:04;15.00;99.90
69901;DHT22;57183;50.930;5.406;2023-09-07T04:07:31;15.00;99.90
69901;DHT22;57183;50.930;5.406;2023-09-07T04:09:57;15.00;99.90
69901;DHT22;57183;50.930;5.406;2023-09-07T04:12:23;15.10;99.90
69901;DHT22;57183;50.930;5.406;2023-09-07T04:14:49;15.10;99.90
69901;DHT22;57183;50.930;5.406;2023-09-07T04:23:31;14.80;99.90
69901;DHT22;57183;50.930;5.406;2023-09-07T04:26:10;14.70;99.90
69901;DHT22;57183;50.930;5.406;2023-09-07T04:28:36;14.70;99.90
69901;DHT22;57183;50.930;5.406;2023-09-07T04:31:03;14.70;99.90
69901;DHT22;57183;50.930;5.406;2023-09-07T04:36:12;14.70;99.90
69901;DHT22;57183;50.930;5.406;2023-09-07T04:41:23;14.50;99.90
69901;DHT22;57183;50.930;5.406;2023-09-07T04:43:49;14.50;99.90
69901;DHT22;57183;50.930;5.406;2023-09-07T04:49:32;14.60;99.90
69901;DHT22;57183;50.930;5.406;2023-09-07T04:54:53;14.50;99.90
69901;DHT22;57183;50.930;5.406;2023-09-07T04:57:19;14.50;99.90
69901;DHT22;57183;50.930;5.406;2023-09-07T05:07:17;14.50;99.90
69901;DHT22;57183;50.930;5.406;2023-09-07T05:12:36;14.50;99.90
69901;DHT22;57183;50.930;5.406;2023-09-07T05:17:54;14.40;99.90
69901;DHT22;57183;50.930;5.406;2023-09-07T05:20:39;14.40;99.90
69901;DHT22;57183;50.930;5.406;2023-09-07T05:23:05;14.50;99.90
69901;DHT22;57183;50.930;5.406;2023-09-07T05:25:32;14.50;99.90
69901;DHT22;57183;50.930;5.406;2023-09-07T05:28:01;14.40;99.90
69901;DHT22;57183;50.930;5.406;2023-09-07T05:30:29;14.30;99.90
69901;DHT22;57183;50.930;5.406;2023-09-07T05:38:35;14.30;99.90
69901;DHT22;57183;50.930;5.406;2023-09-07T05:41:04;14.50;99.90
69901;DHT22;57183;50.930;5.406;2023-09-07T05:43:30;14.50;99.90
69901;DHT22;57183;50.930;5.406;2023-09-07T06:06:58;14.80;99.90
69901;DHT22;57183;50.930;5.406;2023-09-07T06:17:58;15.10;99.90
69901;DHT22;57183;50.930;5.406;2023-09-07T06:25:35;15.70;99.90
69901;DHT22;57183;50.930;5.406;2023-09-07T06:28:01;15.90;99.90
69901;DHT22;57183;50.930;5.406;2023-09-07T06:30:27;16.00;99.90
69901;DHT22;57183;50.930;5.406;2023-09-07T06:32:53;16.20;99.90
69901;DHT22;57183;50.930;5.406;2023-09-07T06:35:19;16.30;99.90
69901;DHT22;57183;50.930;5.406;2023-09-07T06:37:44;16.40;99.90
69901;DHT22;57183;50.930;5.406;2023-09-07T06:40:10;16.60;99.90
69901;DHT22;57183;50.930;5.406;2023-09-07T06:42:36;16.60;99.90
69901;DHT22;57183;50.930;5.406;2023-09-07T06:45:02;16.80;99.90
69901;DHT22;57183;50.930;5.406;2023-09-07T06:47:28;17.00;99.90
69901;DHT22;57183;50.930;5.406;2023-09-07T06:49:54;17.20;99.90
69901;DHT22;57183;50.930;5.406;2023-09-07T06:52:20;17.50;99.90
69901;DHT22;57183;50.930;5.406;2023-09-07T06:54:45;17.60;99.90
69901;DHT22;57183;50.930;5.406;2023-09-07T06:57:11;17.80;99.90
69901;DHT22;57183;50.930;5.406;2023-09-07T06:59:36;17.90;99.90
69901;DHT22;57183;50.930;5.406;2023-09-07T07:02:02;18.20;99.90
69901;DHT22;57183;50.930;5.406;2023-09-07T07:04:30;18.40;99.90
69901;DHT22;57183;50.930;5.406;2023-09-07T07:06:56;18.60;99.90
69901;DHT22;57183;50.930;5.406;2023-09-07T07:09:21;18.60;99.90
69901;DHT22;57183;50.930;5.406;2023-09-07T07:11:47;18.70;99.90
69901;DHT22;57183;50.930;5.406;2023-09-07T07:14:12;18.80;99.90
69901;DHT22;57183;50.930;5.406;2023-09-07T07:16:38;18.90;99.90
69901;DHT22;57183;50.930;5.406;2023-09-07T07:19:04;19.00;99.90
69901;DHT22;57183;50.930;5.406;2023-09-07T07:21:29;19.20;99.90
69901;DHT22;57183;50.930;5.406;2023-09-07T07:23:55;19.40;99.90
69901;DHT22;57183;50.930;5.406;2023-09-07T07:26:20;19.50;99.90
69901;DHT22;57183;50.930;5.406;2023-09-07T07:28:46;19.60;99.90
69901;DHT22;57183;50.930;5.406;2023-09-07T07:31:12;19.90;99.90
69901;DHT22;57183;50.930;5.406;2023-09-07T07:33:38;20.00;99.90
69901;DHT22;57183;50.930;5.406;2023-09-07T07:36:04;20.10;99.90
69901;DHT22;57183;50.930;5.406;2023-09-07T07:38:30;20.20;99.90
69901;DHT22;57183;50.930;5.406;2023-09-07T07:40:55;20.40;99.90
69901;DHT22;57183;50.930;5.406;2023-09-07T07:43:21;20.50;99.90
69901;DHT22;57183;50.930;5.406;2023-09-07T07:45:47;20.60;99.90
69901;DHT22;57183;50.930;5.406;2023-09-07T07:48:13;20.70;99.90
69901;DHT22;57183;50.930;5.406;2023-09-07T07:50:39;20.80;99.90
69901;DHT22;57183;50.930;5.406;2023-09-07T07:53:05;20.90;99.90
69901;DHT22;57183;50.930;5.406;2023-09-07T07:55:35;21.00;99.90
69901;DHT22;57183;50.930;5.406;2023-09-07T07:58:05;21.20;99.90
69901;DHT22;57183;50.930;5.406;2023-09-07T08:00:36;21.30;99.90
69901;DHT22;57183;50.930;5.406;2023-09-07T08:03:02;21.40;99.90
69901;DHT22;57183;50.930;5.406;2023-09-07T08:05:29;21.60;99.90
69901;DHT22;57183;50.930;5.406;2023-09-07T08:07:56;21.80;99.90
69901;DHT22;57183;50.930;5.406;2023-09-07T08:10:21;21.80;99.90
69901;DHT22;57183;50.930;5.406;2023-09-07T08:12:47;21.90;99.90
69901;DHT22;57183;50.930;5.406;2023-09-07T08:15:13;22.10;99.90
69901;DHT22;57183;50.930;5.406;2023-09-07T08:17:40;22.10;99.90
69901;DHT22;57183;50.930;5.406;2023-09-07T08:20:06;22.20;99.90
69901;DHT22;57183;50.930;5.406;2023-09-07T08:22:33;22.40;99.90
69901;DHT22;57183;50.930;5.406;2023-09-07T08:25:02;22.50;99.90
69901;DHT22;57183;50.930;5.406;2023-09-07T08:27:27;22.70;99.90
69901;DHT22;57183;50.930;5.406;2023-09-07T08:29:53;22.80;99.90
69901;DHT22;57183;50.930;5.406;2023-09-07T08:32:19;22.90;99.90
69901;DHT22;57183;50.930;5.406;2023-09-07T08:34:46;22.90;99.90
69901;DHT22;57183;50.930;5.406;2023-09-07T08:37:12;23.10;99.90
69901;DHT22;57183;50.930;5.406;2023-09-07T08:39:37;23.20;99.90
69901;DHT22;57183;50.930;5.406;2023-09-07T08:44:40;23.40;99.90
69901;DHT22;57183;50.930;5.406;2023-09-07T08:47:08;23.60;99.90
69901;DHT22;57183;50.930;5.406;2023-09-07T08:49:34;23.70;99.90
69901;DHT22;57183;50.930;5.406;2023-09-07T08:52:02;23.70;99.90
69901;DHT22;57183;50.930;5.406;2023-09-07T08:54:30;23.80;99.90
69901;DHT22;57183;50.930;5.406;2023-09-07T08:56:57;23.90;99.90
69901;DHT22;57183;50.930;5.406;2023-09-07T08:59:24;24.00;99.90
69901;DHT22;57183;50.930;5.406;2023-09-07T09:01:49;24.10;99.90
69901;DHT22;57183;50.930;5.406;2023-09-07T09:04:15;24.30;99.90
69901;DHT22;57183;50.930;5.406;2023-09-07T09:06:41;24.40;99.90
69901;DHT22;57183;50.930;5.406;2023-09-07T09:09:07;24.50;99.90
69901;DHT22;57183;50.930;5.406;2023-09-07T09:11:32;24.60;99.90
69901;DHT22;57183;50.930;5.406;2023-09-07T09:13:58;24.70;99.90
69901;DHT22;57183;50.930;5.406;2023-09-07T09:16:24;24.70;99.90
69901;DHT22;57183;50.930;5.406;2023-09-07T09:18:55;24.70;99.90
69901;DHT22;57183;50.930;5.406;2023-09-07T09:21:23;24.90;99.90
69901;DHT22;57183;50.930;5.406;2023-09-07T09:23:51;24.80;99.90
69901;DHT22;57183;50.930;5.406;2023-09-07T09:26:17;25.00;99.90
69901;DHT22;57183;50.930;5.406;2023-09-07T09:28:43;25.00;99.90
69901;DHT22;57183;50.930;5.406;2023-09-07T09:31:13;25.10;99.90
69901;DHT22;57183;50.930;5.406;2023-09-07T09:33:40;25.20;99.90
69901;DHT22;57183;50.930;5.406;2023-09-07T09:36:07;25.20;99.90
69901;DHT22;57183;50.930;5.406;2023-09-07T09:38:34;25.30;99.90
69901;DHT22;57183;50.930;5.406;2023-09-07T09:41:00;25.50;99.90
69901;DHT22;57183;50.930;5.406;2023-09-07T09:43:26;25.60;99.90
69901;DHT22;57183;50.930;5.406;2023-09-07T09:45:52;25.70;99.90
69901;DHT22;57183;50.930;5.406;2023-09-07T09:48:22;25.80;99.90
69901;DHT22;57183;50.930;5.406;2023-09-07T09:50:48;25.90;99.90
69901;DHT22;57183;50.930;5.406;2023-09-07T09:53:18;26.00;99.90
69901;DHT22;57183;50.930;5.406;2023-09-07T09:55:49;26.10;99.90
69901;DHT22;57183;50.930;5.406;2023-09-07T09:58:15;26.10;99.90
69901;DHT22;57183;50.930;5.406;2023-09-07T10:00:44;26.20;99.90
69901;DHT22;57183;50.930;5.406;2023-09-07T10:03:12;26.10;99.90
69901;DHT22;57183;50.930;5.406;2023-09-07T10:05:39;26.20;99.90
69901;DHT22;57183;50.930;5.406;2023-09-07T10:08:13;26.20;99.90
69901;DHT22;57183;50.930;5.406;2023-09-07T10:10:41;26.30;99.90
69901;DHT22;57183;50.930;5.406;2023-09-07T10:13:07;26.40;99.90
69901;DHT22;57183;50.930;5.406;2023-09-07T10:15:34;26.40;99.90
69901;DHT22;57183;50.930;5.406;2023-09-07T10:18:15;26.50;99.90
69901;DHT22;57183;50.930;5.406;2023-09-07T10:23:15;26.70;99.90
69901;DHT22;57183;50.930;5.406;2023-09-07T10:25:41;26.90;99.90
69901;DHT22;57183;50.930;5.406;2023-09-07T10:28:21;27.00;99.90
69901;DHT22;57183;50.930;5.406;2023-09-07T10:31:04;27.00;99.90
69901;DHT22;57183;50.930;5.406;2023-09-07T10:33:31;27.10;99.90
69901;DHT22;57183;50.930;5.406;2023-09-07T10:35:58;27.20;99.90
69901;DHT22;57183;50.930;5.406;2023-09-07T10:38:24;27.10;99.90
69901;DHT22;57183;50.930;5.406;2023-09-07T10:40:55;27.00;99.90
69901;DHT22;57183;50.930;5.406;2023-09-07T10:43:32;27.00;99.90
69901;DHT22;57183;50.930;5.406;2023-09-07T10:45:59;27.00;99.90
69901;DHT22;57183;50.930;5.406;2023-09-07T10:48:28;27.10;99.90
69901;DHT22;57183;50.930;5.406;2023-09-07T10:50:54;27.20;99.90
69901;DHT22;57183;50.930;5.406;2023-09-07T10:53:31;27.30;99.90
69901;DHT22;57183;50.930;5.406;2023-09-07T10:56:03;27.40;99.90
69901;DHT22;57183;50.930;5.406;2023-09-07T10:58:30;27.30;99.90
69901;DHT22;57183;50.930;5.406;2023-09-07T11:00:57;27.30;99.90
69901;DHT22;57183;50.930;5.406;2023-09-07T11:03:24;27.20;99.90
69901;DHT22;57183;50.930;5.406;2023-09-07T11:05:54;27.30;99.90
69901;DHT22;57183;50.930;5.406;2023-09-07T11:08:22;27.40;99.90
69901;DHT22;57183;50.930;5.406;2023-09-07T11:10:50;27.40;99.90
69901;DHT22;57183;50.930;5.406;2023-09-07T11:13:17;27.50;99.90
69901;DHT22;57183;50.930;5.406;2023-09-07T11:15:43;27.50;99.90
69901;DHT22;57183;50.930;5.406;2023-09-07T11:18:09;27.40;99.90
69901;DHT22;57183;50.930;5.406;2023-09-07T11:20:36;27.50;99.90
69901;DHT22;57183;50.930;5.406;2023-09-07T11:23:02;27.50;99.90
69901;DHT22;57183;50.930;5.406;2023-09-07T11:25:35;27.60;99.90
69901;DHT22;57183;50.930;5.406;2023-09-07T11:28:05;27.70;99.90
69901;DHT22;57183;50.930;5.406;2023-09-07T11:30:32;27.60;99.90
69901;DHT22;57183;50.930;5.406;2023-09-07T11:33:05;27.70;99.90
69901;DHT22;57183;50.930;5.406;2023-09-07T11:35:32;27.80;99.80
69901;DHT22;57183;50.930;5.406;2023-09-07T11:38:00;27.70;99.90
69901;DHT22;57183;50.930;5.406;2023-09-07T11:40:26;27.70;99.90
69901;DHT22;57183;50.930;5.406;2023-09-07T11:42:52;27.80;99.90
69901;DHT22;57183;50.930;5.406;2023-09-07T11:45:17;27.80;99.90
69901;DHT22;57183;50.930;5.406;2023-09-07T11:47:44;28.00;99.90
69901;DHT22;57183;50.930;5.406;2023-09-07T11:50:10;28.10;99.90
69901;DHT22;57183;50.930;5.406;2023-09-07T11:52:36;28.20;99.90
69901;DHT22;57183;50.930;5.406;2023-09-07T11:55:01;28.20;99.90
69901;DHT22;57183;50.930;5.406;2023-09-07T11:57:29;28.30;99.90
69901;DHT22;57183;50.930;5.406;2023-09-07T11:59:55;28.30;99.90
69901;DHT22;57183;50.930;5.406;2023-09-07T12:02:20;28.30;99.90
69901;DHT22;57183;50.930;5.406;2023-09-07T12:04:47;28.40;99.90
69901;DHT22;57183;50.930;5.406;2023-09-07T12:07:14;28.40;99.90
69901;DHT22;57183;50.930;5.406;2023-09-07T12:09:40;28.40;99.90
69901;DHT22;57183;50.930;5.406;2023-09-07T12:12:06;28.50;99.90
69901;DHT22;57183;50.930;5.406;2023-09-07T12:14:31;28.50;99.90
69901;DHT22;57183;50.930;5.406;2023-09-07T12:16:57;28.50;99.90
69901;DHT22;57183;50.930;5.406;2023-09-07T12:19:23;28.50;99.90
69901;DHT22;57183;50.930;5.406;2023-09-07T12:21:50;28.50;99.90
69901;DHT22;57183;50.930;5.406;2023-09-07T12:24:16;28.50;99.90
69901;DHT22;57183;50.930;5.406;2023-09-07T12:26:42;28.50;99.90
69901;DHT22;57183;50.930;5.406;2023-09-07T12:29:07;28.60;99.90
69901;DHT22;57183;50.930;5.406;2023-09-07T12:31:33;28.70;99.90
69901;DHT22;57183;50.930;5.406;2023-09-07T12:33:59;28.70;99.90
69901;DHT22;57183;50.930;5.406;2023-09-07T12:36:24;28.70;99.90
69901;DHT22;57183;50.930;5.406;2023-09-07T12:38:53;28.70;99.90
69901;DHT22;57183;50.930;5.406;2023-09-07T12:41:19;28.70;99.90
69901;DHT22;57183;50.930;5.406;2023-09-07T12:43:46;28.70;99.90
69901;DHT22;57183;50.930;5.406;2023-09-07T12:46:12;28.80;99.90
69901;DHT22;57183;50.930;5.406;2023-09-07T12:48:38;28.90;99.90
69901;DHT22;57183;50.930;5.406;2023-09-07T12:51:04;28.70;99.90
69901;DHT22;57183;50.930;5.406;2023-09-07T12:53:29;28.70;99.90
69901;DHT22;57183;50.930;5.406;2023-09-07T12:55:55;28.70;99.90
69901;DHT22;57183;50.930;5.406;2023-09-07T12:58:21;28.70;99.90
69901;DHT22;57183;50.930;5.406;2023-09-07T13:00:46;28.70;99.90
69901;DHT22;57183;50.930;5.406;2023-09-07T13:03:16;28.60;99.90
69901;DHT22;57183;50.930;5.406;2023-09-07T13:05:43;28.70;99.90
69901;DHT22;57183;50.930;5.406;2023-09-07T13:08:09;28.70;99.90
69901;DHT22;57183;50.930;5.406;2023-09-07T13:10:35;28.60;99.90
69901;DHT22;57183;50.930;5.406;2023-09-07T13:13:01;28.60;99.90
69901;DHT22;57183;50.930;5.406;2023-09-07T13:15:26;28.70;99.90
69901;DHT22;57183;50.930;5.406;2023-09-07T13:17:52;28.60;99.90
69901;DHT22;57183;50.930;5.406;2023-09-07T13:20:18;28.70;99.90
69901;DHT22;57183;50.930;5.406;2023-09-07T13:22:45;28.80;99.90
69901;DHT22;57183;50.930;5.406;2023-09-07T13:25:12;28.80;99.90
69901;DHT22;57183;50.930;5.406;2023-09-07T13:27:38;28.80;99.90
69901;DHT22;57183;50.930;5.406;2023-09-07T13:30:06;28.80;99.90
69901;DHT22;57183;50.930;5.406;2023-09-07T13:32:37;28.90;99.90
69901;DHT22;57183;50.930;5.406;2023-09-07T13:35:04;29.10;99.90
69901;DHT22;57183;50.930;5.406;2023-09-07T13:37:30;29.30;99.90
69901;DHT22;57183;50.930;5.406;2023-09-07T13:39:56;29.50;99.90
69901;DHT22;57183;50.930;5.406;2023-09-07T13:42:21;29.50;99.90
69901;DHT22;57183;50.930;5.406;2023-09-07T13:44:47;29.70;99.90
69901;DHT22;57183;50.930;5.406;2023-09-07T13:47:15;29.80;99.90
69901;DHT22;57183;50.930;5.406;2023-09-07T13:49:40;29.80;99.90
69901;DHT22;57183;50.930;5.406;2023-09-07T13:52:06;29.80;99.90
69901;DHT22;57183;50.930;5.406;2023-09-07T13:54:31;29.80;99.90
69901;DHT22;57183;50.930;5.406;2023-09-07T13:56:57;29.70;99.90
69901;DHT22;57183;50.930;5.406;2023-09-07T13:59:23;29.60;99.90
69901;DHT22;57183;50.930;5.406;2023-09-07T14:01:51;29.70;99.90
69901;DHT22;57183;50.930;5.406;2023-09-07T14:04:17;29.40;99.90
69901;DHT22;57183;50.930;5.406;2023-09-07T14:06:43;29.40;99.90
69901;DHT22;57183;50.930;5.406;2023-09-07T14:09:08;29.50;99.90
69901;DHT22;57183;50.930;5.406;2023-09-07T14:11:34;29.50;99.90
69901;DHT22;57183;50.930;5.406;2023-09-07T14:14:00;29.60;99.90
69901;DHT22;57183;50.930;5.406;2023-09-07T14:16:25;29.80;99.90
69901;DHT22;57183;50.930;5.406;2023-09-07T14:18:51;29.80;99.90
69901;DHT22;57183;50.930;5.406;2023-09-07T14:21:17;29.90;99.90
69901;DHT22;57183;50.930;5.406;2023-09-07T14:23:43;30.00;99.90
69901;DHT22;57183;50.930;5.406;2023-09-07T14:26:09;30.10;99.90
69901;DHT22;57183;50.930;5.406;2023-09-07T14:28:35;30.40;99.90
69901;DHT22;57183;50.930;5.406;2023-09-07T14:31:03;31.70;99.60
69901;DHT22;57183;50.930;5.406;2023-09-07T14:33:31;33.40;96.80
69901;DHT22;57183;50.930;5.406;2023-09-07T14:35:58;34.60;95.40
69901;DHT22;57183;50.930;5.406;2023-09-07T14:38:23;35.50;93.10
69901;DHT22;57183;50.930;5.406;2023-09-07T14:40:49;36.40;92.40
69901;DHT22;57183;50.930;5.406;2023-09-07T14:43:16;38.00;91.00
69901;DHT22;57183;50.930;5.406;2023-09-07T14:45:43;39.00;89.30
69901;DHT22;57183;50.930;5.406;2023-09-07T14:48:09;39.20;82.20
69901;DHT22;57183;50.930;5.406;2023-09-07T14:50:34;39.00;82.60
69901;DHT22;57183;50.930;5.406;2023-09-07T14:53:00;39.90;80.00
69901;DHT22;57183;50.930;5.406;2023-09-07T14:55:26;39.70;79.00
69901;DHT22;57183;50.930;5.406;2023-09-07T14:57:51;39.90;77.60
69901;DHT22;57183;50.930;5.406;2023-09-07T15:00:17;39.60;74.90
69901;DHT22;57183;50.930;5.406;2023-09-07T15:02:43;39.30;76.00
69901;DHT22;57183;50.930;5.406;2023-09-07T15:05:08;39.60;75.70
69901;DHT22;57183;50.930;5.406;2023-09-07T15:07:34;39.70;75.90
69901;DHT22;57183;50.930;5.406;2023-09-07T15:10:00;39.80;72.90
69901;DHT22;57183;50.930;5.406;2023-09-07T15:12:25;40.20;73.30
69901;DHT22;57183;50.930;5.406;2023-09-07T15:14:52;40.70;70.50
69901;DHT22;57183;50.930;5.406;2023-09-07T15:17:17;40.50;67.70
69901;DHT22;57183;50.930;5.406;2023-09-07T15:19:43;39.70;68.90
69901;DHT22;57183;50.930;5.406;2023-09-07T15:22:09;39.90;69.10
69901;DHT22;57183;50.930;5.406;2023-09-07T15:24:35;39.90;68.30
69901;DHT22;57183;50.930;5.406;2023-09-07T15:27:11;39.90;67.70
69901;DHT22;57183;50.930;5.406;2023-09-07T15:29:37;39.30;68.40
69901;DHT22;57183;50.930;5.406;2023-09-07T15:32:06;38.80;69.30
69901;DHT22;57183;50.930;5.406;2023-09-07T15:34:32;38.90;68.90
69901;DHT22;57183;50.930;5.406;2023-09-07T15:37:00;38.50;69.50
69901;DHT22;57183;50.930;5.406;2023-09-07T15:39:26;38.20;70.30
69901;DHT22;57183;50.930;5.406;2023-09-07T15:41:51;37.80;71.50
69901;DHT22;57183;50.930;5.406;2023-09-07T15:44:19;38.20;71.10
69901;DHT22;57183;50.930;5.406;2023-09-07T15:46:44;38.90;69.90
69901;DHT22;57183;50.930;5.406;2023-09-07T15:49:10;39.00;67.40
69901;DHT22;57183;50.930;5.406;2023-09-07T15:51:36;38.60;68.80
69901;DHT22;57183;50.930;5.406;2023-09-07T15:54:01;39.00;68.90
69901;DHT22;57183;50.930;5.406;2023-09-07T15:56:27;39.30;67.30
69901;DHT22;57183;50.930;5.406;2023-09-07T15:58:53;38.70;66.80
69901;DHT22;57183;50.930;5.406;2023-09-07T16:01:18;38.40;67.20
69901;DHT22;57183;50.930;5.406;2023-09-07T16:03:44;38.20;67.50
69901;DHT22;57183;50.930;5.406;2023-09-07T16:06:10;37.70;69.10
69901;DHT22;57183;50.930;5.406;2023-09-07T16:08:36;37.80;69.90
69901;DHT22;57183;50.930;5.406;2023-09-07T16:11:01;37.90;69.00
69901;DHT22;57183;50.930;5.406;2023-09-07T16:13:28;37.70;69.90
69901;DHT22;57183;50.930;5.406;2023-09-07T16:15:54;37.50;70.00
69901;DHT22;57183;50.930;5.406;2023-09-07T16:18:19;38.00;69.80
69901;DHT22;57183;50.930;5.406;2023-09-07T16:20:48;38.00;68.30
69901;DHT22;57183;50.930;5.406;2023-09-07T16:23:16;37.60;69.20
69901;DHT22;57183;50.930;5.406;2023-09-07T16:25:42;37.80;69.60
69901;DHT22;57183;50.930;5.406;2023-09-07T16:28:08;37.90;68.40
69901;DHT22;57183;50.930;5.406;2023-09-07T16:30:33;37.60;69.00
69901;DHT22;57183;50.930;5.406;2023-09-07T16:32:59;38.00;68.50
69901;DHT22;57183;50.930;5.406;2023-09-07T16:35:25;37.30;68.40
69901;DHT22;57183;50.930;5.406;2023-09-07T16:37:51;37.20;67.90
69901;DHT22;57183;50.930;5.406;2023-09-07T16:40:17;36.70;69.10
69901;DHT22;57183;50.930;5.406;2023-09-07T16:42:43;36.30;70.90
69901;DHT22;57183;50.930;5.406;2023-09-07T16:45:09;35.70;71.90
69901;DHT22;57183;50.930;5.406;2023-09-07T16:47:35;34.60;74.70
69901;DHT22;57183;50.930;5.406;2023-09-07T16:50:01;33.70;76.60
69901;DHT22;57183;50.930;5.406;2023-09-07T16:52:27;32.90;79.70
69901;DHT22;57183;50.930;5.406;2023-09-07T16:54:57;32.40;83.20
69901;DHT22;57183;50.930;5.406;2023-09-07T16:57:22;31.80;85.60
69901;DHT22;57183;50.930;5.406;2023-09-07T16:59:50;31.40;84.40
69901;DHT22;57183;50.930;5.406;2023-09-07T17:02:17;31.00;86.80
69901;DHT22;57183;50.930;5.406;2023-09-07T17:04:42;30.90;86.50
69901;DHT22;57183;50.930;5.406;2023-09-07T17:07:08;30.60;86.80
69901;DHT22;57183;50.930;5.406;2023-09-07T17:09:34;30.30;90.40
69901;DHT22;57183;50.930;5.406;2023-09-07T17:12:00;30.20;90.20
69901;DHT22;57183;50.930;5.406;2023-09-07T17:14:26;30.10;90.40
69901;DHT22;57183;50.930;5.406;2023-09-07T17:16:53;30.00;89.90
69901;DHT22;57183;50.930;5.406;2023-09-07T17:19:22;30.00;91.40
69901;DHT22;57183;50.930;5.406;2023-09-07T17:21:49;30.10;90.20
69901;DHT22;57183;50.930;5.406;2023-09-07T17:24:17;30.60;91.40
69901;DHT22;57183;50.930;5.406;2023-09-07T17:26:43;30.90;90.20
69901;DHT22;57183;50.930;5.406;2023-09-07T17:29:08;31.20;90.00
69901;DHT22;57183;50.930;5.406;2023-09-07T17:31:35;30.80;90.40
69901;DHT22;57183;50.930;5.406;2023-09-07T17:34:01;30.40;91.00
69901;DHT22;57183;50.930;5.406;2023-09-07T17:36:27;30.10;91.70
69901;DHT22;57183;50.930;5.406;2023-09-07T17:38:53;29.80;91.70
69901;DHT22;57183;50.930;5.406;2023-09-07T17:41:31;29.50;93.10
69901;DHT22;57183;50.930;5.406;2023-09-07T17:43:58;29.20;92.90
69901;DHT22;57183;50.930;5.406;2023-09-07T17:46:24;29.00;93.70
69901;DHT22;57183;50.930;5.406;2023-09-07T17:48:50;28.70;94.50
69901;DHT22;57183;50.930;5.406;2023-09-07T17:51:16;28.50;95.20
69901;DHT22;57183;50.930;5.406;2023-09-07T17:53:42;28.20;96.10